sensor_id;sensor_type;location;lat;lon;timestamp;pressure;altitude;pressure_sealevel;temperature;humidity
76352;BME280;65179;47.786;19.138;2023-04-25T00:02:11;99238.13;;;12.03;82.34
76352;BME280;65179;47.786;19.138;2023-04-25T00:04:36;99227.50;;;12.01;82.12
76352;BME280;65179;47.786;19.138;2023-04-25T00:07:03;99228.91;;;12.04;82.00
76352;BME280;65179;47.786;19.138;2023-04-25T00:09:28;99233.53;;;12.03;81.83
76352;BME280;65179;47.786;19.138;2023-04-25T00:11:54;99228.56;;;12.00;81.89
76352;BME280;65179;47.786;19.138;2023-04-25T00:14:19;99231.25;;;11.95;82.09
76352;BME280;65179;47.786;19.138;2023-04-25T00:16:45;99225.28;;;11.98;81.75
76352;BME280;65179;47.786;19.138;2023-04-25T00:19:10;99230.47;;;12.00;81.67
76352;BME280;65179;47.786;19.138;2023-04-25T00:21:36;99234.84;;;12.01;81.58
76352;BME280;65179;47.786;19.138;2023-04-25T00:24:06;99233.19;;;12.00;81.46
76352;BME280;65179;47.786;19.138;2023-04-25T00:26:33;99226.91;;;11.94;81.52
76352;BME280;65179;47.786;19.138;2023-04-25T00:28:59;99221.16;;;11.91;81.52
76352;BME280;65179;47.786;19.138;2023-04-25T00:31:25;99219.75;;;11.88;81.22
76352;BME280;65179;47.786;19.138;2023-04-25T00:33:50;99220.59;;;11.89;80.91
76352;BME280;65179;47.786;19.138;2023-04-25T00:36:16;99218.09;;;11.82;80.93
76352;BME280;65179;47.786;19.138;2023-04-25T00:38:42;99217.06;;;11.93;80.23
76352;BME280;65179;47.786;19.138;2023-04-25T00:41:07;99209.91;;;11.82;80.15
76352;BME280;65179;47.786;19.138;2023-04-25T00:43:33;99218.38;;;11.86;79.87
76352;BME280;65179;47.786;19.138;2023-04-25T00:46:00;99206.59;;;11.80;79.33
76352;BME280;65179;47.786;19.138;2023-04-25T00:48:26;99214.53;;;11.82;78.96
76352;BME280;65179;47.786;19.138;2023-04-25T00:50:53;99217.47;;;11.80;79.17
76352;BME280;65179;47.786;19.138;2023-04-25T00:53:20;99209.59;;;11.79;78.79
76352;BME280;65179;47.786;19.138;2023-04-25T00:55:46;99212.03;;;11.80;78.78
76352;BME280;65179;47.786;19.138;2023-04-25T00:58:12;99204.50;;;11.87;78.72
76352;BME280;65179;47.786;19.138;2023-04-25T01:00:39;99203.38;;;11.83;78.91
76352;BME280;65179;47.786;19.138;2023-04-25T01:03:05;99202.53;;;11.78;79.30
76352;BME280;65179;47.786;19.138;2023-04-25T01:05:31;99203.38;;;11.83;79.22
76352;BME280;65179;47.786;19.138;2023-04-25T01:07:56;99206.38;;;11.82;79.45
76352;BME280;65179;47.786;19.138;2023-04-25T01:10:22;99208.75;;;11.78;79.72
76352;BME280;65179;47.786;19.138;2023-04-25T01:12:47;99200.66;;;11.83;79.49
76352;BME280;65179;47.786;19.138;2023-04-25T01:15:13;99198.41;;;11.75;79.87
76352;BME280;65179;47.786;19.138;2023-04-25T01:17:40;99191.84;;;11.71;80.18
76352;BME280;65179;47.786;19.138;2023-04-25T01:20:06;99197.28;;;11.71;80.19
76352;BME280;65179;47.786;19.138;2023-04-25T01:22:33;99192.91;;;11.70;80.45
76352;BME280;65179;47.786;19.138;2023-04-25T01:24:59;99204.88;;;11.69;80.43
76352;BME280;65179;47.786;19.138;2023-04-25T01:27:25;99193.91;;;11.64;80.55
76352;BME280;65179;47.786;19.138;2023-04-25T01:29:51;99195.53;;;11.65;80.51
76352;BME280;65179;47.786;19.138;2023-04-25T01:32:17;99207.50;;;11.64;80.50
76352;BME280;65179;47.786;19.138;2023-04-25T01:34:43;99202.28;;;11.58;80.75
76352;BME280;65179;47.786;19.138;2023-04-25T01:37:09;99203.09;;;11.58;80.81
76352;BME280;65179;47.786;19.138;2023-04-25T01:39:34;99202.28;;;11.58;80.77
76352;BME280;65179;47.786;19.138;2023-04-25T01:42:00;99209.03;;;11.55;80.82
76352;BME280;65179;47.786;19.138;2023-04-25T01:44:27;99197.97;;;11.62;80.42
76352;BME280;65179;47.786;19.138;2023-04-25T01:46:52;99202.56;;;11.61;80.32
76352;BME280;65179;47.786;19.138;2023-04-25T01:49:18;99190.25;;;11.54;80.38
76352;BME280;65179;47.786;19.138;2023-04-25T01:51:44;99194.94;;;11.58;80.22
76352;BME280;65179;47.786;19.138;2023-04-25T01:54:10;99200.94;;;11.60;80.05
76352;BME280;65179;47.786;19.138;2023-04-25T01:56:37;99201.13;;;11.54;80.35
76352;BME280;65179;47.786;19.138;2023-04-25T01:59:04;99206.81;;;11.52;80.22
76352;BME280;65179;47.786;19.138;2023-04-25T02:01:30;99195.34;;;11.45;80.50
76352;BME280;65179;47.786;19.138;2023-04-25T02:03:56;99193.19;;;11.47;80.27
76352;BME280;65179;47.786;19.138;2023-04-25T02:06:21;99204.31;;;11.46;80.30
76352;BME280;65179;47.786;19.138;2023-04-25T02:08:47;99190.72;;;11.46;80.27
76352;BME280;65179;47.786;19.138;2023-04-25T02:11:12;99195.34;;;11.45;80.13
76352;BME280;65179;47.786;19.138;2023-04-25T02:13:37;99185.59;;;11.49;79.93
76352;BME280;65179;47.786;19.138;2023-04-25T02:16:03;99201.84;;;11.44;80.02
76352;BME280;65179;47.786;19.138;2023-04-25T02:18:29;99203.41;;;11.40;80.14
76352;BME280;65179;47.786;19.138;2023-04-25T02:20:54;99200.25;;;11.48;79.93
76352;BME280;65179;47.786;19.138;2023-04-25T02:23:20;99185.03;;;11.47;79.66
76352;BME280;65179;47.786;19.138;2023-04-25T02:25:45;99184.50;;;11.50;79.56
76352;BME280;65179;47.786;19.138;2023-04-25T02:28:11;99185.53;;;11.44;79.72
76352;BME280;65179;47.786;19.138;2023-04-25T02:30:36;99190.97;;;11.44;79.64
76352;BME280;65179;47.786;19.138;2023-04-25T02:33:02;99191.50;;;11.41;79.66
76352;BME280;65179;47.786;19.138;2023-04-25T02:35:27;99203.34;;;11.35;80.08
76352;BME280;65179;47.786;19.138;2023-04-25T02:37:53;99185.91;;;11.31;79.99
76352;BME280;65179;47.786;19.138;2023-04-25T02:40:18;99187.59;;;11.37;79.58
76352;BME280;65179;47.786;19.138;2023-04-25T02:42:44;99190.84;;;11.34;79.58
76352;BME280;65179;47.786;19.138;2023-04-25T02:45:11;99202.38;;;11.41;79.23
76352;BME280;65179;47.786;19.138;2023-04-25T02:47:37;99190.09;;;11.38;79.12
76352;BME280;65179;47.786;19.138;2023-04-25T02:50:03;99195.75;;;11.37;79.09
76352;BME280;65179;47.786;19.138;2023-04-25T02:52:28;99193.13;;;11.42;78.88
76352;BME280;65179;47.786;19.138;2023-04-25T02:54:54;99184.97;;;11.42;78.42
76352;BME280;65179;47.786;19.138;2023-04-25T02:57:19;99196.97;;;11.46;78.27
76352;BME280;65179;47.786;19.138;2023-04-25T02:59:45;99195.91;;;11.47;78.03
76352;BME280;65179;47.786;19.138;2023-04-25T03:02:10;99192.63;;;11.45;77.35
76352;BME280;65179;47.786;19.138;2023-04-25T03:04:36;99186.63;;;11.43;77.30
76352;BME280;65179;47.786;19.138;2023-04-25T03:07:01;99197.53;;;11.48;77.33
76352;BME280;65179;47.786;19.138;2023-04-25T03:09:27;99193.75;;;11.49;77.38
76352;BME280;65179;47.786;19.138;2023-04-25T03:11:52;99181.22;;;11.48;77.36
76352;BME280;65179;47.786;19.138;2023-04-25T03:14:18;99184.87;;;11.37;77.76
76352;BME280;65179;47.786;19.138;2023-04-25T03:16:43;99185.97;;;11.36;77.93
76352;BME280;65179;47.786;19.138;2023-04-25T03:19:09;99191.69;;;11.34;78.00
76352;BME280;65179;47.786;19.138;2023-04-25T03:21:35;99198.75;;;11.35;78.48
76352;BME280;65179;47.786;19.138;2023-04-25T03:24:02;99192.47;;;11.35;78.61
76352;BME280;65179;47.786;19.138;2023-04-25T03:26:28;99193.47;;;11.24;79.65
76352;BME280;65179;47.786;19.138;2023-04-25T03:28:54;99186.94;;;11.25;79.54
76352;BME280;65179;47.786;19.138;2023-04-25T03:31:19;99187.94;;;11.19;79.74
76352;BME280;65179;47.786;19.138;2023-04-25T03:33:45;99187.94;;;11.19;79.64
76352;BME280;65179;47.786;19.138;2023-04-25T03:36:10;99189.97;;;11.07;80.50
76352;BME280;65179;47.786;19.138;2023-04-25T03:38:36;99190.59;;;11.14;80.53
76352;BME280;65179;47.786;19.138;2023-04-25T03:41:01;99195.53;;;11.17;80.22
76352;BME280;65179;47.786;19.138;2023-04-25T03:43:27;99199.31;;;11.16;79.99
76352;BME280;65179;47.786;19.138;2023-04-25T03:45:53;99198.75;;;11.14;79.75
76352;BME280;65179;47.786;19.138;2023-04-25T03:48:18;99194.44;;;11.18;79.83
76352;BME280;65179;47.786;19.138;2023-04-25T03:50:47;99194.91;;;11.10;79.46
76352;BME280;65179;47.786;19.138;2023-04-25T03:53:12;99191.53;;;11.03;79.81
76352;BME280;65179;47.786;19.138;2023-04-25T03:55:37;99201.28;;;10.99;80.38
76352;BME280;65179;47.786;19.138;2023-04-25T03:58:03;99195.00;;;10.98;80.25
76352;BME280;65179;47.786;19.138;2023-04-25T04:00:28;99194.69;;;10.95;80.39
76352;BME280;65179;47.786;19.138;2023-04-25T04:02:54;99200.06;;;10.90;81.22
76352;BME280;65179;47.786;19.138;2023-04-25T04:05:19;99189.72;;;10.87;81.46
76352;BME280;65179;47.786;19.138;2023-04-25T04:07:45;99196.38;;;10.79;82.15
76352;BME280;65179;47.786;19.138;2023-04-25T04:10:10;99204.28;;;10.81;82.43
76352;BME280;65179;47.786;19.138;2023-04-25T04:12:36;99200.56;;;10.87;82.10
76352;BME280;65179;47.786;19.138;2023-04-25T04:15:03;99200.75;;;10.80;82.77
76352;BME280;65179;47.786;19.138;2023-04-25T04:17:29;99198.84;;;10.81;82.65
76352;BME280;65179;47.786;19.138;2023-04-25T04:19:55;99206.84;;;10.71;83.87
76352;BME280;65179;47.786;19.138;2023-04-25T04:22:21;99209.03;;;10.52;84.43
76352;BME280;65179;47.786;19.138;2023-04-25T04:24:47;99208.72;;;10.70;83.54
76352;BME280;65179;47.786;19.138;2023-04-25T04:27:12;99209.16;;;10.62;84.18
76352;BME280;65179;47.786;19.138;2023-04-25T04:29:38;99212.56;;;10.52;84.85
76352;BME280;65179;47.786;19.138;2023-04-25T04:32:03;99214.59;;;10.62;84.48
76352;BME280;65179;47.786;19.138;2023-04-25T04:34:29;99212.62;;;10.57;84.66
76352;BME280;65179;47.786;19.138;2023-04-25T04:36:56;99216.09;;;10.53;85.27
76352;BME280;65179;47.786;19.138;2023-04-25T04:39:22;99219.53;;;10.48;85.02
76352;BME280;65179;47.786;19.138;2023-04-25T04:41:47;99226.06;;;10.47;85.50
76352;BME280;65179;47.786;19.138;2023-04-25T04:44:13;99227.69;;;10.48;85.58
76352;BME280;65179;47.786;19.138;2023-04-25T04:46:40;99220.53;;;10.42;85.59
76352;BME280;65179;47.786;19.138;2023-04-25T04:49:11;99229.75;;;10.41;85.69
76352;BME280;65179;47.786;19.138;2023-04-25T04:51:39;99229.75;;;10.41;85.84
76352;BME280;65179;47.786;19.138;2023-04-25T04:54:05;99224.91;;;10.43;85.87
76352;BME280;65179;47.786;19.138;2023-04-25T04:56:32;99230.34;;;10.43;85.99
76352;BME280;65179;47.786;19.138;2023-04-25T04:58:59;99225.88;;;10.37;85.83
76352;BME280;65179;47.786;19.138;2023-04-25T05:01:27;99225.06;;;10.37;86.63
76352;BME280;65179;47.786;19.138;2023-04-25T05:03:56;99226.97;;;10.36;85.98
76352;BME280;65179;47.786;19.138;2023-04-25T05:06:30;99223.41;;;10.36;86.17
76352;BME280;65179;47.786;19.138;2023-04-25T05:08:59;99230.72;;;10.35;86.09
76352;BME280;65179;47.786;19.138;2023-04-25T05:11:28;99225.47;;;10.45;85.96
76352;BME280;65179;47.786;19.138;2023-04-25T05:13:55;99234.69;;;10.44;86.23
76352;BME280;65179;47.786;19.138;2023-04-25T05:16:21;99222.69;;;10.40;86.24
76352;BME280;65179;47.786;19.138;2023-04-25T05:18:48;99229.41;;;10.38;86.29
76352;BME280;65179;47.786;19.138;2023-04-25T05:21:14;99232.28;;;10.31;86.37
76352;BME280;65179;47.786;19.138;2023-04-25T05:23:41;99227.22;;;10.35;86.74
76352;BME280;65179;47.786;19.138;2023-04-25T05:26:06;99225.38;;;10.40;86.27
76352;BME280;65179;47.786;19.138;2023-04-25T05:28:40;99229.94;;;10.35;87.29
76352;BME280;65179;47.786;19.138;2023-04-25T05:31:07;99226.81;;;10.26;87.63
76352;BME280;65179;47.786;19.138;2023-04-25T05:33:35;99230.50;;;10.37;86.99
76352;BME280;65179;47.786;19.138;2023-04-25T05:36:00;99231.66;;;10.41;86.63
76352;BME280;65179;47.786;19.138;2023-04-25T05:38:26;99233.94;;;10.32;87.13
76352;BME280;65179;47.786;19.138;2023-04-25T05:40:51;99231.25;;;10.32;87.54
76352;BME280;65179;47.786;19.138;2023-04-25T05:43:16;99230.72;;;10.35;87.75
76352;BME280;65179;47.786;19.138;2023-04-25T05:45:42;99232.22;;;10.43;87.34
76352;BME280;65179;47.786;19.138;2023-04-25T05:48:07;99233.59;;;10.29;87.80
76352;BME280;65179;47.786;19.138;2023-04-25T05:50:33;99238.28;;;10.33;87.27
76352;BME280;65179;47.786;19.138;2023-04-25T05:52:58;99234.00;;;10.37;87.06
76352;BME280;65179;47.786;19.138;2023-04-25T05:55:24;99231.72;;;10.29;87.56
76352;BME280;65179;47.786;19.138;2023-04-25T05:57:49;99235.84;;;10.32;87.33
76352;BME280;65179;47.786;19.138;2023-04-25T06:00:15;99234.38;;;10.24;87.60
76352;BME280;65179;47.786;19.138;2023-04-25T06:02:41;99239.44;;;10.21;87.20
76352;BME280;65179;47.786;19.138;2023-04-25T06:05:07;99230.72;;;10.19;86.84
76352;BME280;65179;47.786;19.138;2023-04-25T06:07:33;99241.25;;;10.15;87.60
76352;BME280;65179;47.786;19.138;2023-04-25T06:09:59;99246.69;;;10.15;87.66
76352;BME280;65179;47.786;19.138;2023-04-25T06:12:26;99243.41;;;10.13;87.77
76352;BME280;65179;47.786;19.138;2023-04-25T06:14:52;99240.81;;;10.07;88.05
76352;BME280;65179;47.786;19.138;2023-04-25T06:17:17;99246.47;;;10.05;88.01
76352;BME280;65179;47.786;19.138;2023-04-25T06:19:43;99249.56;;;9.97;88.19
76352;BME280;65179;47.786;19.138;2023-04-25T06:22:08;99254.16;;;9.97;88.46
76352;BME280;65179;47.786;19.138;2023-04-25T06:24:34;99249.41;;;9.87;89.18
76352;BME280;65179;47.786;19.138;2023-04-25T06:26:59;99251.59;;;9.90;89.28
76352;BME280;65179;47.786;19.138;2023-04-25T06:29:25;99254.00;;;9.86;89.42
76352;BME280;65179;47.786;19.138;2023-04-25T06:31:51;99250.56;;;9.91;89.21
76352;BME280;65179;47.786;19.138;2023-04-25T06:34:16;99254.31;;;9.90;89.50
76352;BME280;65179;47.786;19.138;2023-04-25T06:36:42;99257.53;;;9.87;89.62
76352;BME280;65179;47.786;19.138;2023-04-25T06:39:09;99251.75;;;9.83;90.63
76352;BME280;65179;47.786;19.138;2023-04-25T06:41:34;99248.56;;;9.86;90.35
76352;BME280;65179;47.786;19.138;2023-04-25T06:44:00;99244.97;;;9.81;90.50
76352;BME280;65179;47.786;19.138;2023-04-25T06:46:26;99255.28;;;9.84;90.32
76352;BME280;65179;47.786;19.138;2023-04-25T06:48:52;99255.28;;;9.84;90.51
76352;BME280;65179;47.786;19.138;2023-04-25T06:51:19;99253.75;;;9.88;90.48
76352;BME280;65179;47.786;19.138;2023-04-25T06:53:45;99257.13;;;9.95;90.45
76352;BME280;65179;47.786;19.138;2023-04-25T06:56:11;99247.34;;;9.94;89.76
76352;BME280;65179;47.786;19.138;2023-04-25T06:58:38;99253.44;;;10.01;89.89
76352;BME280;65179;47.786;19.138;2023-04-25T07:01:05;99246.13;;;10.02;89.92
76352;BME280;65179;47.786;19.138;2023-04-25T07:03:32;99244.16;;;9.97;90.45
76352;BME280;65179;47.786;19.138;2023-04-25T07:05:59;99250.25;;;10.04;90.13
76352;BME280;65179;47.786;19.138;2023-04-25T07:08:26;99250.25;;;10.04;90.38
76352;BME280;65179;47.786;19.138;2023-04-25T07:10:52;99247.16;;;10.12;90.10
76352;BME280;65179;47.786;19.138;2023-04-25T07:13:19;99242.81;;;10.11;90.55
76352;BME280;65179;47.786;19.138;2023-04-25T07:15:49;99246.75;;;10.20;90.25
76352;BME280;65179;47.786;19.138;2023-04-25T07:18:16;99246.44;;;10.33;90.04
76352;BME280;65179;47.786;19.138;2023-04-25T07:20:43;99251.78;;;10.45;89.08
76352;BME280;65179;47.786;19.138;2023-04-25T07:23:13;99245.87;;;10.48;89.95
76352;BME280;65179;47.786;19.138;2023-04-25T07:25:42;99248.91;;;10.51;90.08
76352;BME280;65179;47.786;19.138;2023-04-25T07:28:09;99249.72;;;10.68;89.38
76352;BME280;65179;47.786;19.138;2023-04-25T07:30:36;99241.16;;;10.77;89.25
76352;BME280;65179;47.786;19.138;2023-04-25T07:33:03;99248.25;;;10.78;89.38
76352;BME280;65179;47.786;19.138;2023-04-25T07:35:30;99240.78;;;10.90;89.36
76352;BME280;65179;47.786;19.138;2023-04-25T07:37:57;99243.03;;;10.93;89.05
76352;BME280;65179;47.786;19.138;2023-04-25T07:40:25;99247.28;;;11.05;89.14
76352;BME280;65179;47.786;19.138;2023-04-25T07:42:52;99242.78;;;11.16;89.14
76352;BME280;65179;47.786;19.138;2023-04-25T07:45:19;99247.66;;;11.14;88.84
76352;BME280;65179;47.786;19.138;2023-04-25T07:47:45;99243.38;;;11.18;88.63
76352;BME280;65179;47.786;19.138;2023-04-25T07:50:12;99240.66;;;11.18;88.29
76352;BME280;65179;47.786;19.138;2023-04-25T07:52:38;99247.28;;;11.27;88.41
76352;BME280;65179;47.786;19.138;2023-04-25T07:55:05;99248.00;;;11.39;87.91
76352;BME280;65179;47.786;19.138;2023-04-25T07:57:32;99252.44;;;11.45;88.62
76352;BME280;65179;47.786;19.138;2023-04-25T07:59:58;99245.66;;;11.48;87.19
76352;BME280;65179;47.786;19.138;2023-04-25T08:02:26;99250.00;;;11.49;87.89
76352;BME280;65179;47.786;19.138;2023-04-25T08:04:54;99259.19;;;11.64;87.81
76352;BME280;65179;47.786;19.138;2023-04-25T08:07:21;99251.59;;;11.66;87.19
76352;BME280;65179;47.786;19.138;2023-04-25T08:09:48;99251.16;;;11.74;87.59
76352;BME280;65179;47.786;19.138;2023-04-25T08:12:15;99254.69;;;11.75;86.68
76352;BME280;65179;47.786;19.138;2023-04-25T08:14:42;99258.88;;;11.82;86.54
76352;BME280;65179;47.786;19.138;2023-04-25T08:17:09;99259.44;;;11.84;86.11
76352;BME280;65179;47.786;19.138;2023-04-25T08:19:36;99254.56;;;11.86;85.07
76352;BME280;65179;47.786;19.138;2023-04-25T08:22:03;99257.09;;;11.93;85.54
76352;BME280;65179;47.786;19.138;2023-04-25T08:24:30;99249.22;;;11.96;84.89
76352;BME280;65179;47.786;19.138;2023-04-25T08:26:57;99262.91;;;12.06;84.63
76352;BME280;65179;47.786;19.138;2023-04-25T08:29:25;99260.41;;;12.27;84.31
76352;BME280;65179;47.786;19.138;2023-04-25T08:31:52;99271.69;;;12.40;84.19
76352;BME280;65179;47.786;19.138;2023-04-25T08:34:21;99262.22;;;12.48;83.46
76352;BME280;65179;47.786;19.138;2023-04-25T08:36:48;99267.16;;;12.51;83.84
76352;BME280;65179;47.786;19.138;2023-04-25T08:39:18;99263.66;;;12.55;82.71
76352;BME280;65179;47.786;19.138;2023-04-25T08:41:47;99271.13;;;12.70;82.66
76352;BME280;65179;47.786;19.138;2023-04-25T08:44:15;99265.06;;;12.63;82.15
76352;BME280;65179;47.786;19.138;2023-04-25T08:46:43;99266.28;;;12.77;81.36
76352;BME280;65179;47.786;19.138;2023-04-25T08:49:16;99273.16;;;12.89;81.70
76352;BME280;65179;47.786;19.138;2023-04-25T08:51:47;99276.25;;;13.03;80.37
76352;BME280;65179;47.786;19.138;2023-04-25T08:54:21;99286.13;;;13.09;78.53
76352;BME280;65179;47.786;19.138;2023-04-25T08:56:55;99276.47;;;13.33;78.58
76352;BME280;65179;47.786;19.138;2023-04-25T08:59:24;99281.47;;;13.56;77.46
76352;BME280;65179;47.786;19.138;2023-04-25T09:01:51;99278.59;;;13.88;77.31
76352;BME280;65179;47.786;19.138;2023-04-25T09:04:18;99274.84;;;14.09;73.92
76352;BME280;65179;47.786;19.138;2023-04-25T09:06:47;99285.22;;;14.07;74.04
76352;BME280;65179;47.786;19.138;2023-04-25T09:09:13;99280.56;;;14.13;71.59
76352;BME280;65179;47.786;19.138;2023-04-25T09:11:39;99283.94;;;14.45;72.22
76352;BME280;65179;47.786;19.138;2023-04-25T09:14:16;99277.37;;;14.51;72.37
76352;BME280;65179;47.786;19.138;2023-04-25T09:16:58;99282.03;;;14.46;72.27
76352;BME280;65179;47.786;19.138;2023-04-25T09:19:34;99280.38;;;14.39;72.49
76352;BME280;65179;47.786;19.138;2023-04-25T09:22:02;99289.63;;;14.18;68.84
76352;BME280;65179;47.786;19.138;2023-04-25T09:27:10;99280.34;;;14.29;67.29
76352;BME280;65179;47.786;19.138;2023-04-25T09:29:38;99291.28;;;14.34;67.59
76352;BME280;65179;47.786;19.138;2023-04-25T09:32:17;99273.78;;;14.20;64.63
76352;BME280;65179;47.786;19.138;2023-04-25T09:34:46;99287.97;;;14.22;64.92
76352;BME280;65179;47.786;19.138;2023-04-25T09:37:29;99286.69;;;14.50;64.29
76352;BME280;65179;47.786;19.138;2023-04-25T09:39:59;99286.13;;;14.63;63.26
76352;BME280;65179;47.786;19.138;2023-04-25T09:42:28;99293.69;;;14.16;63.64
76352;BME280;65179;47.786;19.138;2023-04-25T09:44:55;99290.47;;;14.39;64.42
76352;BME280;65179;47.786;19.138;2023-04-25T09:47:22;99295.94;;;14.39;64.46
76352;BME280;65179;47.786;19.138;2023-04-25T09:49:49;99298.69;;;14.44;63.73
76352;BME280;65179;47.786;19.138;2023-04-25T09:52:20;99309.06;;;14.42;63.86
76352;BME280;65179;47.786;19.138;2023-04-25T09:54:47;99300.63;;;14.49;62.19
76352;BME280;65179;47.786;19.138;2023-04-25T09:57:24;99291.87;;;14.67;61.70
76352;BME280;65179;47.786;19.138;2023-04-25T09:59:52;99291.87;;;14.87;62.43
76352;BME280;65179;47.786;19.138;2023-04-25T10:02:22;99297.63;;;14.85;62.31
76352;BME280;65179;47.786;19.138;2023-04-25T10:04:49;99298.69;;;14.44;61.90
76352;BME280;65179;47.786;19.138;2023-04-25T10:07:18;99290.78;;;14.53;61.88
76352;BME280;65179;47.786;19.138;2023-04-25T10:09:47;99305.25;;;14.63;60.51
76352;BME280;65179;47.786;19.138;2023-04-25T10:12:15;99291.28;;;15.10;59.65
76352;BME280;65179;47.786;19.138;2023-04-25T10:14:42;99293.97;;;15.35;57.79
76352;BME280;65179;47.786;19.138;2023-04-25T10:17:10;99293.94;;;15.55;57.72
76352;BME280;65179;47.786;19.138;2023-04-25T10:19:39;99289.34;;;15.20;57.15
76352;BME280;65179;47.786;19.138;2023-04-25T10:22:15;99289.38;;;15.15;58.30
76352;BME280;65179;47.786;19.138;2023-04-25T10:24:44;99294.31;;;15.08;57.85
76352;BME280;65179;47.786;19.138;2023-04-25T10:27:13;99290.75;;;14.93;58.44
76352;BME280;65179;47.786;19.138;2023-04-25T10:29:41;99300.34;;;14.75;58.09
76352;BME280;65179;47.786;19.138;2023-04-25T10:32:10;99295.69;;;14.76;58.16
76352;BME280;65179;47.786;19.138;2023-04-25T10:34:42;99294.06;;;14.75;57.87
76352;BME280;65179;47.786;19.138;2023-04-25T10:37:12;99297.06;;;14.63;57.64
76352;BME280;65179;47.786;19.138;2023-04-25T10:39:39;99292.41;;;14.74;57.68
76352;BME280;65179;47.786;19.138;2023-04-25T10:42:05;99291.06;;;14.76;57.87
76352;BME280;65179;47.786;19.138;2023-04-25T10:44:33;99297.06;;;14.48;57.38
76352;BME280;65179;47.786;19.138;2023-04-25T10:47:01;99307.44;;;14.46;58.02
76352;BME280;65179;47.786;19.138;2023-04-25T10:49:38;99307.69;;;14.60;57.92
76352;BME280;65179;47.786;19.138;2023-04-25T10:52:25;99307.44;;;14.76;58.32
76352;BME280;65179;47.786;19.138;2023-04-25T10:54:55;99302.50;;;14.53;56.32
76352;BME280;65179;47.786;19.138;2023-04-25T11:00:19;99309.63;;;14.54;56.68
76352;BME280;65179;47.786;19.138;2023-04-25T11:02:51;99307.69;;;14.60;57.12
76352;BME280;65179;47.786;19.138;2023-04-25T11:05:23;99308.56;;;14.70;57.64
76352;BME280;65179;47.786;19.138;2023-04-25T11:07:53;99311.81;;;14.52;57.23
76352;BME280;65179;47.786;19.138;2023-04-25T11:10:28;99310.16;;;14.51;56.23
76352;BME280;65179;47.786;19.138;2023-04-25T11:12:54;99314.00;;;14.40;55.59
76352;BME280;65179;47.786;19.138;2023-04-25T11:15:20;99314.81;;;14.76;55.78
76352;BME280;65179;47.786;19.138;2023-04-25T11:17:45;99317.81;;;14.64;56.01
76352;BME280;65179;47.786;19.138;2023-04-25T11:20:12;99329.28;;;14.66;54.69
76352;BME280;65179;47.786;19.138;2023-04-25T11:22:42;99320.03;;;15.02;53.60
76352;BME280;65179;47.786;19.138;2023-04-25T11:25:11;99327.38;;;15.22;52.82
76352;BME280;65179;47.786;19.138;2023-04-25T11:27:56;99325.88;;;15.75;52.39
76352;BME280;65179;47.786;19.138;2023-04-25T11:30:24;99328.22;;;16.07;51.58
76352;BME280;65179;47.786;19.138;2023-04-25T11:32:52;99336.56;;;16.35;50.27
76352;BME280;65179;47.786;19.138;2023-04-25T11:35:22;99335.44;;;16.41;50.98
76352;BME280;65179;47.786;19.138;2023-04-25T11:37:50;99342.84;;;16.36;50.21
76352;BME280;65179;47.786;19.138;2023-04-25T11:40:16;99344.75;;;16.40;49.45
76352;BME280;65179;47.786;19.138;2023-04-25T11:42:46;99349.25;;;16.16;49.92
76352;BME280;65179;47.786;19.138;2023-04-25T11:45:12;99342.53;;;16.42;49.40
76352;BME280;65179;47.786;19.138;2023-04-25T11:47:38;99344.84;;;16.25;50.19
76352;BME280;65179;47.786;19.138;2023-04-25T11:50:06;99352.03;;;16.11;49.52
76352;BME280;65179;47.786;19.138;2023-04-25T11:52:42;99351.63;;;15.74;49.46
76352;BME280;65179;47.786;19.138;2023-04-25T11:55:20;99355.50;;;15.68;50.26
76352;BME280;65179;47.786;19.138;2023-04-25T11:57:50;99350.34;;;15.46;50.05
76352;BME280;65179;47.786;19.138;2023-04-25T12:00:19;99357.12;;;15.64;49.58
76352;BME280;65179;47.786;19.138;2023-04-25T12:02:51;99355.22;;;15.69;50.09
76352;BME280;65179;47.786;19.138;2023-04-25T12:05:19;99357.12;;;15.64;50.26
76352;BME280;65179;47.786;19.138;2023-04-25T12:07:47;99355.50;;;15.63;49.77
76352;BME280;65179;47.786;19.138;2023-04-25T12:10:16;99354.72;;;15.52;50.31
76352;BME280;65179;47.786;19.138;2023-04-25T12:12:44;99347.31;;;15.33;49.95
76352;BME280;65179;47.786;19.138;2023-04-25T12:15:14;99352.50;;;15.34;51.18
76352;BME280;65179;47.786;19.138;2023-04-25T12:17:46;99353.91;;;15.01;50.67
76352;BME280;65179;47.786;19.138;2023-04-25T12:20:17;99357.72;;;15.31;50.86
76352;BME280;65179;47.786;19.138;2023-04-25T12:22:47;99353.34;;;15.35;51.24
76352;BME280;65179;47.786;19.138;2023-04-25T12:25:37;99363.75;;;15.48;51.43
76352;BME280;65179;47.786;19.138;2023-04-25T12:28:24;99356.06;;;15.55;50.70
76352;BME280;65179;47.786;19.138;2023-04-25T12:30:56;99352.47;;;15.59;48.60
76352;BME280;65179;47.786;19.138;2023-04-25T12:33:28;99352.75;;;15.68;48.15
76352;BME280;65179;47.786;19.138;2023-04-25T12:35:56;99351.09;;;15.72;50.22
76352;BME280;65179;47.786;19.138;2023-04-25T12:38:29;99340.69;;;15.74;51.59
76352;BME280;65179;47.786;19.138;2023-04-25T12:40:57;99347.88;;;15.55;53.01
76352;BME280;65179;47.786;19.138;2023-04-25T12:43:24;99353.00;;;15.71;52.73
76352;BME280;65179;47.786;19.138;2023-04-25T12:45:56;99352.97;;;15.81;52.40
76352;BME280;65179;47.786;19.138;2023-04-25T12:48:23;99340.41;;;15.80;52.29
76352;BME280;65179;47.786;19.138;2023-04-25T12:50:51;99342.59;;;15.78;51.30
76352;BME280;65179;47.786;19.138;2023-04-25T12:53:19;99343.69;;;16.31;50.34
76352;BME280;65179;47.786;19.138;2023-04-25T12:55:47;99329.19;;;16.75;49.59
76352;BME280;65179;47.786;19.138;2023-04-25T12:58:18;99329.66;;;17.15;48.55